Current Weather

Doha

Doha, Qatar (OTHH)

Report from: Wednesday, September 28, 2022 8:00 AM UTC
Current time: Wednesday, September 28, 2022 8:57 AM UTC

Nearby weather
Weather history
Weather forecast

Temperature37.0°C (98.6°F)
Heat index34.5°C (94.1°F)
Dew point5.0°C (41.0°F)
Winds 14 kts (7.2 m/s, 16.1 mph) North-Northwest (330°)
Clouds Sky clear
Altimeter29.71 in.Hg (1006 mB)
Relative humidity14 %
Density altitude2,860 ft. (872 m)
Remarks Ceiling and visibility OK
No significant changes expected in the next two hours
Flight conditions Visual Meteorological Conditions
Raw dataOTHH 280800Z 33014KT CAVOK 37/05 Q1006 NOSIG
An error has occurred. This application may no longer respond until reloaded. Reload 🗙